createdAt,value
2022-10-25T00:00:58.284Z,96559.31
2022-10-25T00:03:26.851Z,96552.94
2022-10-25T00:05:55.121Z,96553.94
2022-10-25T00:08:23.340Z,96554.34
2022-10-25T00:10:53.074Z,96541.78
2022-10-25T00:13:21.303Z,96544.09
2022-10-25T00:15:49.566Z,96545.16
2022-10-25T00:18:17.861Z,96547.91
2022-10-25T00:20:46.834Z,96549.75
2022-10-25T00:23:15.179Z,96554.44
2022-10-25T00:25:44.631Z,96556.09
2022-10-25T00:28:14.304Z,96561.31
2022-10-25T00:30:42.530Z,96555.06
2022-10-25T00:33:10.771Z,96558.13
2022-10-25T00:35:39.003Z,96557.00
2022-10-25T00:38:07.314Z,96555.94
2022-10-25T00:40:35.560Z,96553.75
2022-10-25T00:43:03.846Z,96556.63
2022-10-25T00:45:33.910Z,96554.78
2022-10-25T00:48:05.758Z,96550.25
2022-10-25T00:50:42.511Z,96551.41
2022-10-25T00:53:18.477Z,96552.94
2022-10-25T00:55:49.807Z,96555.66
2022-10-25T00:58:20.755Z,96554.13
2022-10-25T01:00:50.570Z,96557.84
2022-10-25T01:03:20.692Z,96564.44
2022-10-25T01:05:49.594Z,96558.44
2022-10-25T01:08:18.984Z,96555.97
2022-10-25T01:10:47.569Z,96556.34
2022-10-25T01:13:15.823Z,96557.66
2022-10-25T01:15:56.180Z,96555.50
2022-10-25T01:18:31.442Z,96555.59
2022-10-25T01:21:25.298Z,96545.88
2022-10-25T01:24:09.832Z,96543.38
2022-10-25T01:27:06.014Z,96531.91
2022-10-25T01:30:00.486Z,96538.72
2022-10-25T01:32:34.158Z,96534.59
2022-10-25T01:35:08.246Z,96540.06
2022-10-25T01:37:43.468Z,96545.47
2022-10-25T01:40:18.689Z,96546.25
2022-10-25T01:42:52.801Z,96538.44
2022-10-25T01:45:23.069Z,96545.81
2022-10-25T01:47:56.396Z,96537.28
2022-10-25T01:50:27.867Z,96530.06
2022-10-25T01:52:56.416Z,96534.97
2022-10-25T01:55:28.486Z,96532.72
2022-10-25T01:58:02.022Z,96536.84
2022-10-25T02:00:32.550Z,96536.41
2022-10-25T02:03:09.758Z,96535.63
2022-10-25T02:05:50.456Z,96536.69
2022-10-25T02:08:29.046Z,96533.97
2022-10-25T02:11:03.102Z,96539.69
2022-10-25T02:13:34.344Z,96545.69
2022-10-25T02:16:05.464Z,96542.09
2022-10-25T02:18:38.378Z,96538.22
2022-10-25T02:21:07.430Z,96546.53
2022-10-25T02:23:36.644Z,96539.13
2022-10-25T02:26:06.693Z,96533.91
2022-10-25T02:28:37.320Z,96535.00
2022-10-25T02:31:05.543Z,96535.91
2022-10-25T02:33:33.679Z,96542.00
2022-10-25T02:36:14.329Z,96540.41
2022-10-25T02:38:42.430Z,96542.00
2022-10-25T02:41:10.695Z,96544.09
2022-10-25T02:43:39.006Z,96540.84
2022-10-25T02:46:09.785Z,96533.28
2022-10-25T02:48:38.791Z,96546.41
2022-10-25T02:51:07.501Z,96543.28
2022-10-25T02:53:37.315Z,96552.59
2022-10-25T02:56:07.375Z,96563.50
2022-10-25T02:58:37.236Z,96557.84
2022-10-25T03:01:06.874Z,96562.28
2022-10-25T03:03:35.655Z,96562.72
2022-10-25T03:06:04.659Z,96555.25
2022-10-25T03:08:33.233Z,96561.22
2022-10-25T03:11:02.976Z,96558.34
2022-10-25T03:13:31.190Z,96557.50
2022-10-25T03:15:59.686Z,96554.53
2022-10-25T03:18:28.320Z,96558.31
2022-10-25T03:20:58.101Z,96557.56
2022-10-25T03:23:26.556Z,96557.63
2022-10-25T03:25:54.897Z,96559.94
2022-10-25T03:28:24.681Z,96560.03
2022-10-25T03:30:52.841Z,96560.81
2022-10-25T03:33:21.061Z,96559.28
2022-10-25T03:35:51.811Z,96567.00
2022-10-25T03:38:20.276Z,96568.66
2022-10-25T03:40:48.602Z,96573.78
2022-10-25T03:43:16.876Z,96573.81
2022-10-25T03:45:46.638Z,96577.47
2022-10-25T03:48:14.839Z,96582.44
2022-10-25T03:50:43.114Z,96578.41
2022-10-25T03:53:12.551Z,96576.41
2022-10-25T03:55:40.798Z,96578.69
2022-10-25T03:58:08.955Z,96575.81
2022-10-25T04:00:37.290Z,96579.69
2022-10-25T04:05:40.161Z,96575.75
2022-10-25T04:08:08.421Z,96584.03
2022-10-25T04:10:36.779Z,96576.72
2022-10-25T04:13:05.002Z,96585.25
2022-10-25T04:15:33.284Z,96582.22
2022-10-25T04:18:01.471Z,96577.91
2022-10-25T04:20:31.065Z,96589.41
2022-10-25T04:22:59.486Z,96581.03
2022-10-25T04:25:29.231Z,96586.38
2022-10-25T04:27:59.566Z,96596.56
2022-10-25T04:30:27.954Z,96583.31
2022-10-25T04:32:57.980Z,96581.19
2022-10-25T04:35:26.289Z,96576.38
2022-10-25T04:37:58.531Z,96574.47
2022-10-25T04:40:27.231Z,96574.16
2022-10-25T04:42:55.468Z,96576.84
2022-10-25T04:45:24.606Z,96581.09
2022-10-25T04:47:52.769Z,96573.91
2022-10-25T04:50:20.954Z,96586.63
2022-10-25T04:52:49.383Z,96582.84
2022-10-25T04:55:19.482Z,96575.91
2022-10-25T04:57:47.709Z,96572.78
2022-10-25T05:00:16.115Z,96579.31
2022-10-25T05:02:44.403Z,96578.88
2022-10-25T05:05:12.971Z,96578.28
2022-10-25T05:07:41.155Z,96589.66
2022-10-25T05:10:10.041Z,96582.06
2022-10-25T05:12:39.977Z,96598.03
2022-10-25T05:15:09.663Z,96587.88
2022-10-25T05:17:38.165Z,96595.72
2022-10-25T05:20:07.573Z,96585.03
2022-10-25T05:22:35.757Z,96583.56
2022-10-25T05:25:03.961Z,96590.34
2022-10-25T05:27:32.164Z,96602.47
2022-10-25T05:30:01.766Z,96596.81
2022-10-25T05:32:31.302Z,96601.88
2022-10-25T05:34:59.469Z,96598.25
2022-10-25T05:37:27.649Z,96606.81
2022-10-25T05:39:55.793Z,96613.66
2022-10-25T05:42:24.100Z,96607.75
2022-10-25T05:44:52.393Z,96610.91
2022-10-25T05:47:21.949Z,96614.56
2022-10-25T05:49:50.195Z,96611.94
2022-10-25T05:52:18.365Z,96611.69
2022-10-25T05:54:46.531Z,96617.56
2022-10-25T05:57:14.783Z,96619.53
2022-10-25T05:59:43.107Z,96611.53
2022-10-25T06:02:12.158Z,96616.19
2022-10-25T06:04:41.955Z,96617.47
2022-10-25T06:07:10.213Z,96618.72
2022-10-25T06:09:38.440Z,96618.16
2022-10-25T06:12:09.493Z,96625.88
2022-10-25T06:14:37.940Z,96629.19
2022-10-25T06:17:06.165Z,96625.84
2022-10-25T06:19:34.465Z,96638.69
2022-10-25T06:22:04.149Z,96643.84
2022-10-25T06:24:32.446Z,96647.63
2022-10-25T06:27:00.714Z,96654.28
2022-10-25T06:29:29.160Z,96659.25
2022-10-25T06:31:57.509Z,96657.38
2022-10-25T06:34:25.746Z,96657.50
2022-10-25T06:36:54.023Z,96661.69
2022-10-25T06:39:23.699Z,96664.16
2022-10-25T06:41:51.954Z,96659.91
2022-10-25T06:44:20.264Z,96667.81
2022-10-25T06:47:18.434Z,96668.94
2022-10-25T06:49:36.620Z,96671.09
2022-10-25T06:52:04.891Z,96667.56
2022-10-25T06:54:34.476Z,96663.94
2022-10-25T06:57:02.673Z,96672.28
2022-10-25T06:59:30.892Z,96667.81
2022-10-25T07:01:59.208Z,96670.31
2022-10-25T07:04:27.547Z,96683.97
2022-10-25T07:06:55.734Z,96677.50
2022-10-25T07:09:23.973Z,96681.81
2022-10-25T07:11:53.507Z,96677.84
2022-10-25T07:14:22.167Z,96681.91
2022-10-25T07:16:50.509Z,96681.41
2022-10-25T07:19:18.713Z,96683.09
2022-10-25T07:21:46.940Z,96695.75
2022-10-25T07:24:15.112Z,96696.84
2022-10-25T07:26:43.437Z,96696.09
2022-10-25T07:29:13.058Z,96696.47
2022-10-25T07:31:43.184Z,96689.75
2022-10-25T07:34:13.794Z,96691.25
2022-10-25T07:36:41.829Z,96691.88
2022-10-25T07:39:10.474Z,96696.31
2022-10-25T07:41:38.795Z,96688.75
2022-10-25T07:44:09.625Z,96690.56
2022-10-25T07:46:42.788Z,96690.84
2022-10-25T07:49:11.109Z,96700.25
2022-10-25T07:51:39.378Z,96700.69
2022-10-25T07:54:07.927Z,96700.91
2022-10-25T07:56:36.214Z,96713.47
2022-10-25T07:59:04.496Z,96703.28
2022-10-25T08:01:32.765Z,96710.63
2022-10-25T08:04:02.379Z,96705.97
2022-10-25T08:06:30.596Z,96702.25
2022-10-25T08:09:05.399Z,96703.81
2022-10-25T08:11:43.398Z,96699.78
2022-10-25T08:14:11.694Z,96701.84
2022-10-25T08:16:39.987Z,96695.75
2022-10-25T08:19:09.661Z,96681.31
2022-10-25T08:21:37.962Z,96688.84
2022-10-25T08:24:07.146Z,96681.09
2022-10-25T08:26:37.014Z,96689.22
2022-10-25T08:29:05.487Z,96684.59
2022-10-25T08:31:33.760Z,96688.13
2022-10-25T08:34:01.997Z,96688.81
2022-10-25T08:36:31.607Z,96680.81
2022-10-25T08:38:59.815Z,96693.25
2022-10-25T08:41:34.302Z,96683.75
2022-10-25T08:44:13.196Z,96694.63
2022-10-25T08:46:44.761Z,96683.72
2022-10-25T08:49:21.178Z,96698.31
2022-10-25T08:51:51.645Z,96694.88
2022-10-25T08:54:22.455Z,96693.50
2022-10-25T08:57:10.711Z,96699.25
2022-10-25T08:59:44.576Z,96687.44
2022-10-25T09:02:18.962Z,96694.22
2022-10-25T09:04:47.344Z,96707.06
2022-10-25T09:07:37.391Z,96705.59
2022-10-25T09:10:19.217Z,96702.72
2022-10-25T09:12:56.482Z,96711.53
2022-10-25T09:15:36.788Z,96699.97
2022-10-25T09:18:15.818Z,96713.28
2022-10-25T09:20:49.116Z,96704.38
2022-10-25T09:23:25.327Z,96696.25
2022-10-25T09:26:00.432Z,96703.66
2022-10-25T09:28:39.171Z,96700.44
2022-10-25T09:31:09.141Z,96698.56
2022-10-25T09:33:37.402Z,96706.88
2022-10-25T09:36:06.358Z,96699.50
2022-10-25T09:38:40.088Z,96699.13
2022-10-25T09:41:13.664Z,96706.38
2022-10-25T09:43:46.215Z,96716.00
2022-10-25T09:46:17.286Z,96706.34
2022-10-25T09:48:51.737Z,96702.41
2022-10-25T09:51:25.795Z,96709.28
2022-10-25T09:53:56.357Z,96711.84
2022-10-25T09:56:24.556Z,96708.56
2022-10-25T09:58:52.826Z,96709.53
2022-10-25T10:01:23.764Z,96704.03
2022-10-25T10:03:54.833Z,96713.78
2022-10-25T10:06:27.211Z,96709.13
2022-10-25T10:09:01.704Z,96709.31
2022-10-25T10:11:30.421Z,96708.16
2022-10-25T10:14:04.967Z,96714.03
2022-10-25T10:16:39.339Z,96697.78
2022-10-25T10:19:16.490Z,96711.84
2022-10-25T10:21:45.283Z,96718.41
2022-10-25T10:24:18.857Z,96707.13
2022-10-25T10:26:49.099Z,96710.25
2022-10-25T10:29:21.134Z,96710.59
2022-10-25T10:31:51.857Z,96701.06
2022-10-25T10:34:28.087Z,96692.41
2022-10-25T10:37:04.042Z,96703.06
2022-10-25T10:39:33.662Z,96698.53
2022-10-25T10:42:04.096Z,96698.09
2022-10-25T10:44:34.517Z,96690.38
2022-10-25T10:47:03.865Z,96692.34
2022-10-25T10:49:36.141Z,96687.34
2022-10-25T10:52:04.752Z,96691.28
2022-10-25T10:54:35.819Z,96687.31
2022-10-25T10:57:05.988Z,96686.25
2022-10-25T10:59:37.636Z,96685.31
2022-10-25T11:02:14.299Z,96682.44
2022-10-25T11:04:49.980Z,96689.31
2022-10-25T11:07:27.824Z,96680.41
2022-10-25T11:10:34.809Z,96676.78
2022-10-25T11:13:12.815Z,96682.25
2022-10-25T11:16:01.446Z,96676.38
2022-10-25T11:18:37.817Z,96672.28
2022-10-25T11:21:12.655Z,96676.97
2022-10-25T11:23:50.731Z,96670.94
2022-10-25T11:26:24.296Z,96671.69
2022-10-25T11:29:00.866Z,96665.22
2022-10-25T11:31:35.556Z,96665.69
2022-10-25T11:34:10.133Z,96663.72
2022-10-25T11:36:57.494Z,96657.72
2022-10-25T11:39:38.406Z,96661.25
2022-10-25T11:42:20.722Z,96653.47
2022-10-25T11:45:07.223Z,96650.41
2022-10-25T11:47:43.435Z,96649.81
2022-10-25T11:50:20.500Z,96654.31
2022-10-25T11:53:04.156Z,96654.66
2022-10-25T11:55:36.765Z,96642.78
2022-10-25T11:58:16.619Z,96643.84
2022-10-25T12:00:53.159Z,96644.88
2022-10-25T12:03:32.193Z,96639.22
2022-10-25T12:06:06.832Z,96644.31
2022-10-25T12:08:41.441Z,96642.66
2022-10-25T12:11:14.999Z,96635.72
2022-10-25T12:13:48.214Z,96643.22
2022-10-25T12:16:19.662Z,96645.16
2022-10-25T12:18:49.709Z,96632.81
2022-10-25T12:21:22.182Z,96635.25
2022-10-25T12:23:52.813Z,96638.56
2022-10-25T12:26:27.903Z,96641.81
2022-10-25T12:28:58.170Z,96632.09
2022-10-25T12:31:29.057Z,96630.00
2022-10-25T12:34:02.283Z,96629.25
2022-10-25T12:36:35.662Z,96630.47
2022-10-25T12:39:08.261Z,96626.56
2022-10-25T12:41:38.833Z,96621.88
2022-10-25T12:44:16.606Z,96611.72
2022-10-25T12:47:18.668Z,96616.06
2022-10-25T12:49:59.193Z,96625.31
2022-10-25T12:52:31.913Z,96625.63
2022-10-25T12:55:08.541Z,96619.28
2022-10-25T12:57:46.100Z,96618.09
2022-10-25T13:00:18.331Z,96612.41
2022-10-25T13:03:20.878Z,96615.72
2022-10-25T13:05:59.961Z,96611.19
2022-10-25T13:08:29.670Z,96603.56
2022-10-25T13:10:59.541Z,96590.84
2022-10-25T13:13:29.476Z,96604.78
2022-10-25T13:15:59.752Z,96598.22
2022-10-25T13:18:40.606Z,96601.53
2022-10-25T13:21:10.346Z,96601.84
2022-10-25T13:24:00.511Z,96607.69
2022-10-25T13:26:32.021Z,96600.06
2022-10-25T13:29:02.591Z,96605.88
2022-10-25T13:31:49.190Z,96614.31
2022-10-25T13:34:37.977Z,96608.34
2022-10-25T13:37:11.339Z,96606.56
2022-10-25T13:39:44.518Z,96602.59
2022-10-25T13:42:24.319Z,96602.75
2022-10-25T13:44:55.897Z,96604.41
2022-10-25T13:47:32.872Z,96600.00
2022-10-25T13:50:03.049Z,96606.84
2022-10-25T13:52:33.443Z,96607.69
2022-10-25T13:55:04.309Z,96602.28
2022-10-25T13:57:51.085Z,96591.88
2022-10-25T14:00:37.894Z,96598.28
2022-10-25T14:06:24.800Z,96587.66
2022-10-25T14:09:08.911Z,96587.75
2022-10-25T14:11:40.913Z,96582.41
2022-10-25T14:14:23.697Z,96582.66
2022-10-25T14:17:10.531Z,96586.50
2022-10-25T14:19:40.934Z,96581.34
2022-10-25T14:22:14.432Z,96582.00
2022-10-25T14:24:43.704Z,96586.94
2022-10-25T14:27:29.309Z,96582.03
2022-10-25T14:30:14.388Z,96582.41
2022-10-25T14:32:50.582Z,96579.44
2022-10-25T14:35:19.126Z,96586.53
2022-10-25T14:37:48.709Z,96582.34
2022-10-25T14:40:21.861Z,96584.69
2022-10-25T14:42:50.545Z,96588.53
2022-10-25T14:45:21.672Z,96583.81
2022-10-25T14:47:49.888Z,96586.94
2022-10-25T14:50:20.139Z,96586.78
2022-10-25T14:52:51.140Z,96581.19
2022-10-25T14:55:22.957Z,96585.00
2022-10-25T14:57:51.321Z,96584.53
2022-10-25T15:00:22.599Z,96571.25
2022-10-25T15:02:55.283Z,96578.06
2022-10-25T15:05:25.286Z,96564.81
2022-10-25T15:07:57.996Z,96573.97
2022-10-25T15:10:47.475Z,96563.31
2022-10-25T15:13:17.867Z,96566.06
2022-10-25T15:15:47.556Z,96557.94
2022-10-25T15:18:35.015Z,96568.06
2022-10-25T15:21:09.215Z,96559.13
2022-10-25T15:23:39.538Z,96557.06
2022-10-25T15:26:25.274Z,96564.19
2022-10-25T15:28:55.489Z,96562.38
2022-10-25T15:31:25.302Z,96570.75
2022-10-25T15:33:58.111Z,96567.13
2022-10-25T15:36:29.442Z,96567.81
2022-10-25T15:39:11.624Z,96571.38
2022-10-25T15:41:41.052Z,96566.59
2022-10-25T15:44:09.357Z,96568.09
2022-10-25T15:46:38.139Z,96559.28
2022-10-25T15:49:08.591Z,96564.69
2022-10-25T15:51:40.108Z,96562.09
2022-10-25T15:54:14.663Z,96564.00
2022-10-25T15:56:43.002Z,96562.03
2022-10-25T15:59:11.455Z,96565.06
2022-10-25T16:01:42.708Z,96566.09
2022-10-25T16:04:15.060Z,96569.50
2022-10-25T16:06:43.673Z,96570.16
2022-10-25T16:09:13.260Z,96573.09
2022-10-25T16:11:46.279Z,96571.06
2022-10-25T16:14:19.977Z,96576.31
2022-10-25T16:16:48.200Z,96574.84
2022-10-25T16:19:17.885Z,96573.91
2022-10-25T16:21:46.572Z,96578.66
2022-10-25T16:24:16.124Z,96578.13
2022-10-25T16:26:46.121Z,96576.41
2022-10-25T16:29:15.979Z,96578.69
2022-10-25T16:31:44.479Z,96584.69
2022-10-25T16:34:15.391Z,96584.16
2022-10-25T16:36:43.931Z,96590.38
2022-10-25T16:39:12.607Z,96582.06
2022-10-25T16:41:45.769Z,96582.09
2022-10-25T16:44:16.249Z,96584.31
2022-10-25T16:46:45.310Z,96580.25
2022-10-25T16:49:13.822Z,96579.47
2022-10-25T16:51:44.163Z,96586.31
2022-10-25T16:54:12.936Z,96578.69
2022-10-25T16:56:42.466Z,96586.16
2022-10-25T16:59:10.657Z,96589.31
2022-10-25T17:01:40.193Z,96599.59
2022-10-25T17:04:10.823Z,96597.13
2022-10-25T17:06:41.827Z,96589.75
2022-10-25T17:09:10.728Z,96593.47
2022-10-25T17:11:39.089Z,96604.41
2022-10-25T17:14:09.611Z,96602.56
2022-10-25T17:16:37.961Z,96609.34
2022-10-25T17:19:06.191Z,96614.31
2022-10-25T17:21:35.789Z,96609.16
2022-10-25T17:24:04.509Z,96608.16
2022-10-25T17:26:32.742Z,96609.56
2022-10-25T17:29:01.131Z,96609.16
2022-10-25T17:34:01.126Z,96608.56
2022-10-25T17:36:31.703Z,96606.72
2022-10-25T17:39:00.009Z,96606.28
2022-10-25T17:41:28.204Z,96610.00
2022-10-25T17:43:57.017Z,96608.47
2022-10-25T17:46:26.835Z,96605.00
2022-10-25T17:48:57.583Z,96608.88
2022-10-25T17:51:25.920Z,96607.22
2022-10-25T17:53:55.133Z,96601.88
2022-10-25T17:56:25.359Z,96602.91
2022-10-25T17:58:54.599Z,96594.22
2022-10-25T18:01:24.649Z,96593.00
2022-10-25T18:03:54.106Z,96598.34
2022-10-25T18:06:25.670Z,96602.06
2022-10-25T18:08:55.017Z,96598.72
2022-10-25T18:11:24.470Z,96605.28
2022-10-25T18:13:54.175Z,96602.84
2022-10-25T18:16:25.894Z,96598.28
2022-10-25T18:18:54.422Z,96589.22
2022-10-25T18:21:24.170Z,96591.03
2022-10-25T18:23:55.507Z,96588.13
2022-10-25T18:26:25.013Z,96594.06
2022-10-25T18:28:53.570Z,96590.94
2022-10-25T18:31:22.490Z,96580.41
2022-10-25T18:33:50.721Z,96590.69
2022-10-25T18:36:21.707Z,96584.31
2022-10-25T18:38:51.575Z,96586.94
2022-10-25T18:41:21.894Z,96582.41
2022-10-25T18:43:50.231Z,96586.06
2022-10-25T18:46:18.983Z,96587.50
2022-10-25T18:48:51.781Z,96587.47
2022-10-25T18:51:20.983Z,96582.06
2022-10-25T18:53:49.242Z,96581.66
2022-10-25T18:56:21.251Z,96576.16
2022-10-25T18:58:50.521Z,96575.88
2022-10-25T19:01:22.608Z,96572.16
2022-10-25T19:03:51.618Z,96579.53
2022-10-25T19:06:20.385Z,96580.03
2022-10-25T19:08:49.429Z,96577.09
2022-10-25T19:11:19.197Z,96572.75
2022-10-25T19:13:50.383Z,96580.66
2022-10-25T19:16:19.687Z,96579.00
2022-10-25T19:18:47.868Z,96569.56
2022-10-25T19:21:18.367Z,96576.38
2022-10-25T19:23:46.813Z,96573.09
2022-10-25T19:26:16.963Z,96567.44
2022-10-25T19:28:46.561Z,96567.16
2022-10-25T19:31:15.957Z,96558.28
2022-10-25T19:33:46.093Z,96556.31
2022-10-25T19:36:14.336Z,96558.34
2022-10-25T19:38:42.887Z,96553.25
2022-10-25T19:41:14.691Z,96555.34
2022-10-25T19:43:43.450Z,96551.22
2022-10-25T19:46:13.939Z,96546.31
2022-10-25T19:48:42.328Z,96552.38
2022-10-25T19:51:11.907Z,96548.91
2022-10-25T19:53:40.580Z,96540.03
2022-10-25T19:56:10.438Z,96538.19
2022-10-25T19:58:38.639Z,96539.25
2022-10-25T20:01:09.230Z,96544.50
2022-10-25T20:03:39.903Z,96538.13
2022-10-25T20:06:10.169Z,96539.66
2022-10-25T20:08:39.847Z,96532.41
2022-10-25T20:11:09.329Z,96536.78
2022-10-25T20:13:37.551Z,96532.28
2022-10-25T20:16:06.435Z,96534.41
2022-10-25T20:18:36.837Z,96537.59
2022-10-25T20:21:08.410Z,96534.41
2022-10-25T20:23:36.881Z,96538.88
2022-10-25T20:26:13.116Z,96538.34
2022-10-25T20:28:41.576Z,96541.47
2022-10-25T20:31:10.212Z,96536.22
2022-10-25T20:33:38.501Z,96539.91
2022-10-25T20:36:09.900Z,96546.63
2022-10-25T20:38:38.665Z,96549.78
2022-10-25T20:41:08.936Z,96544.25
2022-10-25T20:43:37.645Z,96545.44
2022-10-25T20:46:06.766Z,96542.66
2022-10-25T20:48:35.729Z,96535.31
2022-10-25T20:51:07.607Z,96544.13
2022-10-25T20:53:38.498Z,96545.34
2022-10-25T20:56:07.328Z,96537.72
2022-10-25T20:58:35.707Z,96538.78
2022-10-25T21:01:04.161Z,96537.72
2022-10-25T21:03:33.189Z,96545.34
2022-10-25T21:06:04.436Z,96538.63
2022-10-25T21:08:33.303Z,96540.25
2022-10-25T21:11:04.125Z,96526.78
2022-10-25T21:13:33.188Z,96537.59
2022-10-25T21:16:06.476Z,96520.63
2022-10-25T21:18:36.001Z,96524.31
2022-10-25T21:21:06.250Z,96535.72
2022-10-25T21:23:34.606Z,96538.56
2022-10-25T21:26:05.363Z,96534.69
2022-10-25T21:28:35.577Z,96532.28
2022-10-25T21:31:04.785Z,96523.28
2022-10-25T21:33:33.025Z,96532.75
2022-10-25T21:36:05.898Z,96521.00
2022-10-25T21:38:34.160Z,96526.94
2022-10-25T21:41:11.584Z,96516.19
2022-10-25T21:43:43.545Z,96517.66
2022-10-25T21:46:12.278Z,96517.00
2022-10-25T21:48:40.455Z,96516.75
2022-10-25T21:51:09.216Z,96512.78
2022-10-25T21:53:37.490Z,96512.69
2022-10-25T21:56:07.046Z,96505.84
2022-10-25T21:58:36.605Z,96507.69
2022-10-25T22:01:08.274Z,96505.94
2022-10-25T22:03:36.558Z,96506.31
2022-10-25T22:06:06.613Z,96491.50
2022-10-25T22:08:35.116Z,96494.59
2022-10-25T22:11:05.687Z,96489.53
2022-10-25T22:13:33.729Z,96490.50
2022-10-25T22:16:05.568Z,96494.69
2022-10-25T22:18:34.332Z,96489.28
2022-10-25T22:21:05.016Z,96480.81
2022-10-25T22:23:33.870Z,96484.69
2022-10-25T22:26:06.965Z,96484.69
2022-10-25T22:28:38.361Z,96486.84
2022-10-25T22:31:11.726Z,96489.16
2022-10-25T22:33:40.411Z,96477.22
2022-10-25T22:36:10.802Z,96473.69
2022-10-25T22:38:39.227Z,96486.28
2022-10-25T22:41:10.376Z,96489.31
2022-10-25T22:43:39.719Z,96494.78
2022-10-25T22:46:11.352Z,96487.75
2022-10-25T22:48:41.084Z,96479.22
2022-10-25T22:51:10.192Z,96485.06
2022-10-25T22:56:26.848Z,96483.88
2022-10-25T22:58:56.520Z,96481.94
2022-10-25T23:01:27.311Z,96485.66
2022-10-25T23:03:56.841Z,96485.28
2022-10-25T23:06:26.406Z,96480.06
2022-10-25T23:08:55.189Z,96476.06
2022-10-25T23:11:25.255Z,96476.56
2022-10-25T23:13:53.755Z,96475.19
2022-10-25T23:16:22.012Z,96476.56
2022-10-25T23:18:51.976Z,96473.16
2022-10-25T23:21:23.346Z,96470.56
2022-10-25T23:23:52.313Z,96463.97
2022-10-25T23:26:22.157Z,96460.72
2022-10-25T23:28:50.524Z,96463.41
2022-10-25T23:31:19.156Z,96474.53
2022-10-25T23:33:53.060Z,96481.41
2022-10-25T23:36:22.657Z,96481.22
2022-10-25T23:38:51.808Z,96476.81
2022-10-25T23:41:20.674Z,96483.81
2022-10-25T23:43:49.186Z,96477.28
2022-10-25T23:46:17.464Z,96476.28
2022-10-25T23:48:45.794Z,96478.56
2022-10-25T23:51:17.372Z,96481.72
2022-10-25T23:53:46.528Z,96482.22
2022-10-25T23:56:15.190Z,96491.38
2022-10-25T23:58:43.642Z,96479.00
